createdAt,value
2023-02-13T00:00:23.976Z,2.05
2023-02-13T00:02:51.312Z,1.90
2023-02-13T00:05:17.876Z,1.80
2023-02-13T00:07:44.633Z,1.70
2023-02-13T00:10:11.595Z,1.55
2023-02-13T00:12:38.401Z,1.98
2023-02-13T00:15:05.385Z,1.60
2023-02-13T00:17:32.355Z,1.80
2023-02-13T00:19:59.340Z,2.00
2023-02-13T00:22:26.108Z,1.60
2023-02-13T00:24:52.678Z,1.55
2023-02-13T00:27:19.493Z,1.50
2023-02-13T00:29:46.079Z,1.27
2023-02-13T00:32:14.531Z,1.40
2023-02-13T00:34:41.301Z,1.10
2023-02-13T00:37:08.023Z,1.30
2023-02-13T00:39:37.039Z,1.20
2023-02-13T00:42:03.808Z,0.90
2023-02-13T00:44:30.371Z,1.20
2023-02-13T00:46:57.012Z,1.30
2023-02-13T00:49:23.790Z,1.45
2023-02-13T00:51:50.575Z,1.25
2023-02-13T00:54:17.281Z,1.45
2023-02-13T00:56:44.232Z,1.03
2023-02-13T00:59:13.060Z,1.05
2023-02-13T01:01:39.799Z,0.98
2023-02-13T01:04:06.433Z,1.50
2023-02-13T01:06:33.024Z,1.40
2023-02-13T01:09:00.005Z,0.90
2023-02-13T01:11:26.774Z,0.95
2023-02-13T01:13:53.367Z,1.15
2023-02-13T01:16:20.624Z,1.17
2023-02-13T01:18:47.625Z,1.20
2023-02-13T01:21:19.733Z,1.07
2023-02-13T01:23:47.308Z,0.95
2023-02-13T01:26:18.993Z,1.20
2023-02-13T01:28:45.691Z,1.00
2023-02-13T01:31:13.141Z,1.20
2023-02-13T01:33:39.824Z,1.13
2023-02-13T01:36:11.410Z,1.10
2023-02-13T01:38:38.389Z,1.05
2023-02-13T01:41:05.189Z,0.90
2023-02-13T01:44:24.236Z,0.93
2023-02-13T01:46:51.022Z,0.90
2023-02-13T01:49:25.431Z,0.90
2023-02-13T01:51:56.161Z,1.13
2023-02-13T01:54:31.081Z,1.10
2023-02-13T01:57:13.028Z,1.00
2023-02-13T02:00:02.229Z,1.07
2023-02-13T02:02:34.810Z,1.48
2023-02-13T02:05:02.635Z,1.00
2023-02-13T02:07:31.514Z,1.08
2023-02-13T02:10:08.260Z,1.45
2023-02-13T02:12:45.699Z,0.90
2023-02-13T02:15:12.476Z,1.20
2023-02-13T02:17:39.247Z,1.30
2023-02-13T02:20:24.361Z,1.10
2023-02-13T02:23:05.029Z,1.10
2023-02-13T02:26:04.134Z,1.20
2023-02-13T02:28:53.209Z,1.20
2023-02-13T02:31:38.337Z,1.35
2023-02-13T02:34:23.926Z,1.35
2023-02-13T02:37:29.492Z,1.25
2023-02-13T02:40:12.186Z,1.10
2023-02-13T02:43:11.237Z,1.17
2023-02-13T02:45:59.399Z,1.20
2023-02-13T02:48:44.736Z,1.08
2023-02-13T02:51:39.176Z,1.10
2023-02-13T02:55:02.277Z,1.10
2023-02-13T02:57:51.724Z,1.00
2023-02-13T03:00:42.775Z,1.15
2023-02-13T03:03:36.646Z,1.00
2023-02-13T03:06:14.011Z,1.17
2023-02-13T03:09:03.060Z,1.07
2023-02-13T03:11:48.302Z,0.90
2023-02-13T03:14:20.153Z,1.17
2023-02-13T03:17:06.601Z,1.13
2023-02-13T03:20:05.530Z,1.40
2023-02-13T03:22:42.345Z,0.77
2023-02-13T03:25:34.503Z,1.25
2023-02-13T03:28:32.165Z,1.23
2023-02-13T03:31:05.411Z,0.90
2023-02-13T03:33:56.380Z,1.00
2023-02-13T03:37:00.984Z,1.10
2023-02-13T03:40:04.198Z,1.00
2023-02-13T03:42:37.228Z,1.10
2023-02-13T03:45:39.723Z,1.20
2023-02-13T03:48:10.066Z,1.00
2023-02-13T03:50:42.926Z,1.10
2023-02-13T03:53:13.321Z,1.00
2023-02-13T03:56:05.231Z,1.10
2023-02-13T03:59:01.652Z,1.13
2023-02-13T04:01:32.101Z,1.52
2023-02-13T04:04:07.059Z,0.90
2023-02-13T04:06:39.427Z,1.00
2023-02-13T04:09:06.152Z,1.05
2023-02-13T04:11:39.085Z,1.00
2023-02-13T04:14:16.508Z,1.10
2023-02-13T04:16:48.045Z,1.00
2023-02-13T04:19:15.895Z,0.95
2023-02-13T04:21:42.724Z,1.10
2023-02-13T04:24:09.998Z,1.02
2023-02-13T04:26:40.304Z,1.17
2023-02-13T04:29:07.288Z,0.90
2023-02-13T04:31:34.406Z,1.10
2023-02-13T04:34:01.260Z,1.15
2023-02-13T04:36:27.971Z,1.40
2023-02-13T04:38:54.651Z,1.10
2023-02-13T04:41:21.260Z,1.00
2023-02-13T04:43:47.960Z,1.05
2023-02-13T04:46:14.836Z,1.42
2023-02-13T04:48:41.474Z,1.10
2023-02-13T04:51:08.077Z,1.20
2023-02-13T04:53:34.731Z,1.20
2023-02-13T04:56:01.351Z,1.15
2023-02-13T04:58:30.988Z,1.13
2023-02-13T05:01:00.339Z,1.05
2023-02-13T05:03:26.993Z,1.33
2023-02-13T05:05:53.796Z,1.10
2023-02-13T05:08:20.462Z,1.48
2023-02-13T05:10:48.251Z,1.27
2023-02-13T05:13:16.635Z,1.20
2023-02-13T05:15:45.081Z,1.10
2023-02-13T05:18:11.716Z,1.00
2023-02-13T05:20:38.399Z,1.23
2023-02-13T05:23:27.853Z,1.00
2023-02-13T05:25:57.205Z,1.20
2023-02-13T05:28:42.533Z,1.30
2023-02-13T05:31:09.251Z,1.23
2023-02-13T05:33:35.888Z,1.30
2023-02-13T05:36:02.740Z,1.23
2023-02-13T05:38:29.486Z,1.20
2023-02-13T05:41:02.992Z,1.20
2023-02-13T05:43:30.483Z,1.50
2023-02-13T05:46:09.028Z,1.55
2023-02-13T05:48:36.633Z,1.38
2023-02-13T05:51:03.695Z,1.48
2023-02-13T05:53:30.451Z,1.13
2023-02-13T05:55:59.167Z,2.20
2023-02-13T05:58:26.812Z,1.33
2023-02-13T06:00:59.921Z,1.50
2023-02-13T06:03:31.213Z,1.38
2023-02-13T06:06:00.757Z,1.30
2023-02-13T06:08:30.096Z,1.40
2023-02-13T06:11:00.114Z,1.60
2023-02-13T06:13:27.901Z,1.77
2023-02-13T06:15:54.901Z,2.85
2023-02-13T06:18:21.495Z,2.28
2023-02-13T06:20:48.158Z,1.73
2023-02-13T06:23:15.514Z,2.80
2023-02-13T06:25:42.221Z,3.10
2023-02-13T06:28:09.103Z,2.83
2023-02-13T06:30:35.682Z,2.50
2023-02-13T06:33:02.410Z,2.43
2023-02-13T06:35:29.066Z,3.80
2023-02-13T06:37:55.830Z,2.50
2023-02-13T06:40:22.420Z,2.15
2023-02-13T06:42:49.066Z,3.03
2023-02-13T06:45:15.826Z,2.60
2023-02-13T06:47:44.336Z,2.50
2023-02-13T06:50:12.607Z,2.60
2023-02-13T06:52:39.324Z,3.30
2023-02-13T06:55:06.213Z,2.90
2023-02-13T06:57:33.762Z,3.10
2023-02-13T07:00:03.680Z,3.53
2023-02-13T07:02:30.654Z,5.30
2023-02-13T07:04:57.247Z,2.90
2023-02-13T07:07:23.937Z,2.40
2023-02-13T07:09:50.522Z,2.00
2023-02-13T07:12:17.190Z,3.20
2023-02-13T07:14:43.735Z,2.67
2023-02-13T07:17:11.132Z,3.80
2023-02-13T07:19:37.752Z,4.35
2023-02-13T07:22:04.410Z,3.67
2023-02-13T07:24:32.793Z,3.65
2023-02-13T07:26:59.648Z,3.58
2023-02-13T07:29:26.425Z,2.90
2023-02-13T07:31:53.136Z,3.13
2023-02-13T07:34:19.746Z,2.83
2023-02-13T07:36:46.419Z,2.95
2023-02-13T07:39:12.995Z,2.90
2023-02-13T07:41:39.647Z,3.00
2023-02-13T07:44:07.365Z,2.78
2023-02-13T07:46:34.161Z,2.97
2023-02-13T07:49:00.929Z,2.75
2023-02-13T07:51:29.059Z,2.47
2023-02-13T07:53:56.665Z,2.63
2023-02-13T07:56:24.222Z,2.70
2023-02-13T07:58:50.862Z,2.50
2023-02-13T08:01:17.795Z,3.58
2023-02-13T08:03:52.491Z,2.92
2023-02-13T08:06:20.580Z,3.17
2023-02-13T08:08:47.825Z,3.50
2023-02-13T08:11:50.002Z,3.50
2023-02-13T08:14:16.698Z,3.03
2023-02-13T08:16:43.306Z,3.47
2023-02-13T08:19:09.971Z,2.30
2023-02-13T08:21:38.202Z,2.53
2023-02-13T08:24:05.362Z,2.40
2023-02-13T08:26:33.031Z,9.35
2023-02-13T08:29:00.119Z,5.20
2023-02-13T08:31:26.810Z,3.60
2023-02-13T08:33:53.580Z,2.20
2023-02-13T08:36:20.962Z,2.10
2023-02-13T08:38:47.870Z,2.47
2023-02-13T08:43:44.305Z,2.75
2023-02-13T08:46:10.936Z,1.20
2023-02-13T08:48:37.654Z,1.40
2023-02-13T08:51:08.493Z,1.65
2023-02-13T08:53:36.490Z,3.20
2023-02-13T08:56:03.772Z,4.70
2023-02-13T08:58:30.920Z,4.95
2023-02-13T09:00:57.935Z,3.00
2023-02-13T09:03:24.844Z,1.73
2023-02-13T09:05:51.444Z,2.70
2023-02-13T09:08:19.005Z,4.65
2023-02-13T09:10:45.841Z,6.90
2023-02-13T09:13:12.657Z,8.13
2023-02-13T09:15:42.977Z,9.32
2023-02-13T09:18:09.597Z,7.32
2023-02-13T09:20:36.408Z,7.35
2023-02-13T09:23:03.184Z,6.15
2023-02-13T09:25:29.837Z,8.00
2023-02-13T09:27:56.510Z,8.27
2023-02-13T09:30:23.896Z,5.57
2023-02-13T09:32:52.722Z,7.38
2023-02-13T09:35:20.219Z,5.53
2023-02-13T09:37:47.105Z,4.53
2023-02-13T09:40:44.514Z,3.90
2023-02-13T09:43:19.834Z,3.00
2023-02-13T09:45:48.569Z,2.40
2023-02-13T09:48:28.746Z,2.15
2023-02-13T09:50:56.273Z,2.53
2023-02-13T09:53:24.958Z,2.45
2023-02-13T09:56:14.524Z,2.28
2023-02-13T09:58:47.370Z,2.13
2023-02-13T10:01:29.365Z,2.00
2023-02-13T10:04:01.768Z,1.90
2023-02-13T10:06:50.477Z,2.03
2023-02-13T10:09:33.347Z,2.13
2023-02-13T10:12:31.878Z,2.00
2023-02-13T10:15:02.924Z,2.33
2023-02-13T10:17:40.949Z,2.00
2023-02-13T10:20:36.729Z,1.77
2023-02-13T10:23:18.368Z,1.83
2023-02-13T10:25:51.934Z,1.83
2023-02-13T10:28:30.294Z,1.98
2023-02-13T10:31:03.178Z,1.80
2023-02-13T10:33:40.848Z,1.75
2023-02-13T10:36:10.532Z,1.80
2023-02-13T10:38:44.524Z,2.10
2023-02-13T10:41:36.081Z,2.10
2023-02-13T10:44:34.114Z,2.73
2023-02-13T10:47:15.682Z,2.15
2023-02-13T10:50:22.034Z,2.40
2023-02-13T10:53:00.531Z,2.78
2023-02-13T10:55:39.162Z,2.65
2023-02-13T10:58:17.686Z,2.60
2023-02-13T11:00:56.566Z,2.95
2023-02-13T11:03:25.460Z,2.67
2023-02-13T11:05:53.890Z,3.00
2023-02-13T11:08:32.732Z,2.42
2023-02-13T11:11:00.254Z,2.10
2023-02-13T11:13:30.064Z,2.00
2023-02-13T11:16:07.153Z,2.25
2023-02-13T11:18:44.227Z,1.73
2023-02-13T11:21:21.953Z,2.38
2023-02-13T11:23:54.652Z,2.00
2023-02-13T11:26:22.638Z,2.10
2023-02-13T11:29:00.964Z,1.90
2023-02-13T11:31:31.929Z,2.05
2023-02-13T11:34:17.372Z,2.13
2023-02-13T11:36:44.094Z,1.80
2023-02-13T11:39:29.585Z,2.10
2023-02-13T11:41:56.283Z,2.10
2023-02-13T11:44:29.580Z,2.40
2023-02-13T11:46:59.220Z,2.60
2023-02-13T11:49:32.021Z,1.70
2023-02-13T11:52:01.526Z,1.40
2023-02-13T11:54:42.305Z,1.63
2023-02-13T11:57:28.312Z,1.40
2023-02-13T11:59:55.056Z,1.40
2023-02-13T12:02:24.339Z,1.37
2023-02-13T12:05:14.209Z,1.33
2023-02-13T12:07:42.741Z,1.70
2023-02-13T12:10:21.444Z,1.30
2023-02-13T12:13:29.790Z,1.55
2023-02-13T12:16:02.882Z,1.40
2023-02-13T12:18:38.572Z,1.58
2023-02-13T12:21:20.181Z,1.60
2023-02-13T12:24:01.606Z,1.60
2023-02-13T12:26:33.448Z,1.42
2023-02-13T12:29:40.438Z,1.50
2023-02-13T12:32:38.499Z,1.67
2023-02-13T12:35:26.562Z,1.70
2023-02-13T12:38:16.120Z,1.70
2023-02-13T12:41:01.586Z,1.50
2023-02-13T12:43:42.932Z,1.50
2023-02-13T12:46:24.460Z,1.58
2023-02-13T12:48:57.064Z,1.35
2023-02-13T12:52:01.244Z,1.48
2023-02-13T12:54:52.385Z,1.70
2023-02-13T12:57:43.869Z,1.57
2023-02-13T13:00:38.134Z,1.60
2023-02-13T13:03:40.735Z,1.67
2023-02-13T13:06:13.254Z,1.77
2023-02-13T13:08:45.025Z,1.35
2023-02-13T13:11:27.262Z,1.00
2023-02-13T13:14:16.940Z,0.80
2023-02-13T13:17:13.413Z,0.80
2023-02-13T13:20:33.926Z,0.70
2023-02-13T13:23:29.853Z,1.10
2023-02-13T13:26:17.698Z,0.87
2023-02-13T13:28:48.868Z,0.68
2023-02-13T13:31:16.554Z,0.93
2023-02-13T13:33:46.560Z,0.75
2023-02-13T13:36:19.899Z,0.70
2023-02-13T13:38:52.424Z,0.80
2023-02-13T13:41:30.126Z,1.10
2023-02-13T13:44:13.424Z,1.10
2023-02-13T13:46:50.865Z,0.82
2023-02-13T13:49:37.204Z,0.90
2023-02-13T13:52:31.384Z,0.80
2023-02-13T13:55:00.653Z,0.90
2023-02-13T13:57:58.925Z,0.85
2023-02-13T14:00:30.235Z,1.10
2023-02-13T14:03:21.452Z,0.90
2023-02-13T14:06:07.038Z,0.90
2023-02-13T14:08:39.704Z,1.00
2023-02-13T14:11:26.816Z,1.20
2023-02-13T14:13:53.554Z,1.13
2023-02-13T14:16:42.394Z,1.38
2023-02-13T14:19:40.548Z,1.47
2023-02-13T14:22:19.012Z,1.50
2023-02-13T14:25:05.220Z,1.70
2023-02-13T14:27:37.700Z,2.15
2023-02-13T14:30:22.072Z,1.85
2023-02-13T14:32:48.769Z,1.70
2023-02-13T14:35:22.787Z,1.27
2023-02-13T14:37:59.207Z,1.45
2023-02-13T14:40:40.770Z,0.85
2023-02-13T14:43:23.476Z,1.08
2023-02-13T14:45:56.990Z,1.00
2023-02-13T14:48:37.677Z,1.08
2023-02-13T14:51:05.685Z,0.90
2023-02-13T14:53:48.150Z,0.93
2023-02-13T14:56:18.936Z,0.90
2023-02-13T14:58:53.689Z,0.70
2023-02-13T15:01:35.756Z,0.73
2023-02-13T15:04:13.300Z,0.90
2023-02-13T15:06:43.191Z,1.08
2023-02-13T15:09:40.557Z,1.05
2023-02-13T15:12:36.228Z,1.00
2023-02-13T15:15:25.647Z,1.27
2023-02-13T15:18:01.613Z,2.00
2023-02-13T15:20:32.863Z,1.30
2023-02-13T15:23:00.213Z,1.50
2023-02-13T15:25:32.911Z,1.40
2023-02-13T15:28:00.911Z,1.35
2023-02-13T15:30:29.512Z,1.45
2023-02-13T15:33:02.492Z,1.55
2023-02-13T15:35:37.540Z,1.40
2023-02-13T15:38:30.937Z,1.40
2023-02-13T15:41:19.030Z,1.40
2023-02-13T15:43:51.862Z,1.33
2023-02-13T15:46:21.181Z,1.67
2023-02-13T15:48:48.835Z,1.63
2023-02-13T15:51:24.202Z,1.40
2023-02-13T15:53:55.327Z,1.33
2023-02-13T15:56:22.984Z,1.88
2023-02-13T15:58:51.562Z,1.75
2023-02-13T16:01:18.358Z,1.70
2023-02-13T16:03:56.407Z,1.80
2023-02-13T16:06:23.993Z,1.60
2023-02-13T16:08:56.497Z,2.17
2023-02-13T16:11:35.146Z,2.00
2023-02-13T16:14:12.764Z,3.28
2023-02-13T16:17:16.995Z,3.70
2023-02-13T16:20:13.190Z,4.38
2023-02-13T16:22:53.477Z,4.65
2023-02-13T16:25:26.270Z,3.38
2023-02-13T16:27:56.678Z,3.10
2023-02-13T16:30:25.763Z,2.70
2023-02-13T16:33:08.766Z,2.63
2023-02-13T16:35:38.157Z,2.35
2023-02-13T16:38:24.371Z,1.90
2023-02-13T16:40:51.111Z,1.65
2023-02-13T16:43:48.461Z,1.23
2023-02-13T16:46:15.067Z,0.95
2023-02-13T16:48:43.904Z,1.40
2023-02-13T16:51:11.520Z,2.50
2023-02-13T16:53:39.530Z,3.05
2023-02-13T16:56:08.765Z,2.10
2023-02-13T16:58:36.714Z,1.90
2023-02-13T17:01:07.262Z,1.67
2023-02-13T17:03:33.991Z,1.67
2023-02-13T17:06:02.526Z,2.30
2023-02-13T17:08:32.045Z,1.80
2023-02-13T17:11:04.503Z,1.52
2023-02-13T17:13:31.351Z,1.63
2023-02-13T17:15:59.368Z,1.40
2023-02-13T17:18:26.832Z,1.65
2023-02-13T17:20:54.326Z,2.10
2023-02-13T17:23:24.576Z,1.60
2023-02-13T17:25:53.697Z,1.60
2023-02-13T17:28:24.197Z,2.58
2023-02-13T17:30:54.071Z,1.63
2023-02-13T17:33:30.641Z,1.67
2023-02-13T17:35:57.679Z,5.80
2023-02-13T17:38:24.341Z,8.27
2023-02-13T17:40:51.865Z,5.30
2023-02-13T17:43:19.583Z,1.58
2023-02-13T17:45:47.284Z,1.40
2023-02-13T17:48:14.062Z,1.13
2023-02-13T17:50:41.330Z,1.30
2023-02-13T17:53:27.145Z,1.42
2023-02-13T17:55:53.817Z,1.40
2023-02-13T17:58:20.523Z,1.90
2023-02-13T18:00:47.159Z,1.67
2023-02-13T18:03:13.797Z,1.98
2023-02-13T18:05:40.925Z,2.30
2023-02-13T18:08:07.799Z,1.77
2023-02-13T18:10:36.910Z,0.90
2023-02-13T18:13:04.498Z,1.20
2023-02-13T18:15:33.572Z,1.20
2023-02-13T18:18:00.729Z,1.42
2023-02-13T18:20:27.826Z,2.03
2023-02-13T18:22:54.748Z,4.13
2023-02-13T18:25:21.881Z,4.47
2023-02-13T18:27:48.736Z,4.60
2023-02-13T18:30:18.369Z,3.70
2023-02-13T18:32:45.604Z,2.53
2023-02-13T18:35:12.309Z,2.23
2023-02-13T18:37:39.329Z,1.80
2023-02-13T18:40:09.629Z,1.90
2023-02-13T18:42:36.416Z,2.20
2023-02-13T18:45:03.705Z,2.05
2023-02-13T18:47:30.956Z,1.80
2023-02-13T18:49:57.573Z,1.90
2023-02-13T18:52:24.231Z,1.90
2023-02-13T18:54:51.570Z,2.53
2023-02-13T18:57:18.192Z,1.90
2023-02-13T18:59:44.765Z,2.57
2023-02-13T19:02:11.480Z,6.03
2023-02-13T19:04:38.306Z,2.70
2023-02-13T19:07:04.960Z,2.65
2023-02-13T19:09:31.577Z,3.28
2023-02-13T19:11:58.326Z,3.33
2023-02-13T19:14:25.900Z,2.60
2023-02-13T19:16:55.699Z,4.10
2023-02-13T19:19:22.355Z,2.28
2023-02-13T19:21:49.016Z,3.10
2023-02-13T19:24:15.645Z,2.60
2023-02-13T19:26:42.934Z,3.50
2023-02-13T19:29:09.701Z,6.97
2023-02-13T19:31:36.502Z,4.30
2023-02-13T19:34:05.675Z,7.07
2023-02-13T19:36:32.444Z,7.67
2023-02-13T19:39:04.840Z,8.65
2023-02-13T19:41:45.034Z,8.02
2023-02-13T19:44:16.014Z,7.70
2023-02-13T19:46:43.281Z,8.35
2023-02-13T19:49:10.015Z,9.07
2023-02-13T19:51:36.980Z,8.32
2023-02-13T19:54:06.162Z,7.95
2023-02-13T19:56:35.754Z,6.40
2023-02-13T19:59:02.643Z,7.70
2023-02-13T20:01:30.038Z,6.07
2023-02-13T20:03:56.893Z,5.68
2023-02-13T20:06:24.433Z,5.88
2023-02-13T20:08:52.059Z,5.15
2023-02-13T20:11:20.184Z,5.88
2023-02-13T20:13:47.003Z,6.17
2023-02-13T20:16:16.401Z,8.52
2023-02-13T20:18:43.382Z,10.50
2023-02-13T20:21:15.339Z,10.73
2023-02-13T20:23:48.509Z,20.13
2023-02-13T20:26:16.568Z,17.67
2023-02-13T20:28:45.209Z,17.08
2023-02-13T20:31:15.135Z,18.05
2023-02-13T20:33:42.467Z,17.02
2023-02-13T20:36:13.212Z,16.27
2023-02-13T20:38:40.637Z,16.57
2023-02-13T20:41:11.355Z,13.25
2023-02-13T20:43:38.659Z,12.98
2023-02-13T20:46:06.122Z,10.77
2023-02-13T20:48:35.929Z,9.38
2023-02-13T20:51:05.314Z,8.27
2023-02-13T20:53:32.349Z,7.80
2023-02-13T20:56:07.437Z,6.60
2023-02-13T20:58:34.627Z,4.10
2023-02-13T21:01:01.837Z,4.13
2023-02-13T21:03:28.972Z,3.60
2023-02-13T21:05:57.220Z,3.90
2023-02-13T21:08:23.817Z,3.67
2023-02-13T21:10:50.477Z,3.47
2023-02-13T21:13:17.166Z,3.90
2023-02-13T21:15:48.117Z,3.63
2023-02-13T21:18:15.450Z,3.28
2023-02-13T21:20:42.289Z,3.08
2023-02-13T21:23:08.959Z,2.95
2023-02-13T21:25:35.651Z,2.20
2023-02-13T21:28:02.326Z,2.50
2023-02-13T21:30:28.955Z,2.97
2023-02-13T21:32:59.275Z,2.65
2023-02-13T21:35:26.214Z,2.53
2023-02-13T21:37:52.796Z,2.50
2023-02-13T21:40:20.664Z,2.73
2023-02-13T21:42:47.305Z,2.40
2023-02-13T21:45:14.102Z,2.65
2023-02-13T21:47:40.695Z,2.55
2023-02-13T21:50:07.823Z,3.40
2023-02-13T21:52:35.652Z,3.77
2023-02-13T21:55:02.677Z,3.40
2023-02-13T21:57:29.458Z,3.65
2023-02-13T21:59:57.142Z,3.33
2023-02-13T22:02:25.017Z,2.90
2023-02-13T22:04:51.680Z,2.90
2023-02-13T22:07:18.267Z,2.50
2023-02-13T22:09:44.837Z,2.10
2023-02-13T22:12:11.444Z,2.00
2023-02-13T22:14:38.080Z,2.35
2023-02-13T22:17:04.805Z,2.00
2023-02-13T22:19:31.477Z,1.88
2023-02-13T22:21:58.175Z,2.30
2023-02-13T22:24:24.996Z,2.65
2023-02-13T22:26:51.568Z,2.92
2023-02-13T22:29:18.641Z,2.70
2023-02-13T22:31:45.717Z,3.13
2023-02-13T22:34:13.760Z,4.00
2023-02-13T22:36:41.300Z,4.45
2023-02-13T22:39:10.420Z,3.65
2023-02-13T22:41:37.492Z,3.90
2023-02-13T22:44:06.867Z,3.67
2023-02-13T22:46:34.435Z,3.65
2023-02-13T22:49:01.531Z,3.03
2023-02-13T22:51:36.214Z,3.03
2023-02-13T22:54:03.227Z,2.00
2023-02-13T22:56:31.136Z,2.75
2023-02-13T22:58:58.485Z,2.60
2023-02-13T23:01:26.953Z,2.03
2023-02-13T23:03:54.428Z,2.20
2023-02-13T23:06:21.907Z,2.10
2023-02-13T23:08:52.354Z,2.13
2023-02-13T23:11:39.270Z,1.88
2023-02-13T23:14:05.930Z,1.80
2023-02-13T23:16:50.767Z,1.90
2023-02-13T23:19:17.585Z,2.30
2023-02-13T23:21:44.182Z,2.08
2023-02-13T23:24:11.148Z,1.75
2023-02-13T23:26:37.883Z,1.92
2023-02-13T23:29:04.614Z,2.03
2023-02-13T23:31:31.468Z,1.70
2023-02-13T23:33:58.244Z,1.75
2023-02-13T23:36:24.814Z,1.90
2023-02-13T23:38:51.424Z,2.20
2023-02-13T23:41:18.247Z,2.22
2023-02-13T23:43:44.855Z,1.80
2023-02-13T23:46:11.522Z,1.70
2023-02-13T23:48:38.175Z,1.77
2023-02-13T23:51:04.872Z,1.92
2023-02-13T23:53:35.500Z,1.75
2023-02-13T23:56:02.934Z,1.50
2023-02-13T23:58:29.700Z,1.73
